createdAt,value
2018-02-21T00:01:23.120Z,-1.50
2018-02-21T00:03:50.793Z,-1.50
2018-02-21T00:06:18.452Z,-1.50
2018-02-21T00:08:46.108Z,-1.50
2018-02-21T00:11:14.489Z,-1.50
2018-02-21T00:13:42.885Z,-1.40
2018-02-21T00:16:11.315Z,-1.40
2018-02-21T00:18:38.966Z,-1.30
2018-02-21T00:21:06.557Z,-1.30
2018-02-21T00:23:34.214Z,-1.30
2018-02-21T00:26:01.881Z,-1.30
2018-02-21T00:28:29.512Z,-1.30
2018-02-21T00:30:57.131Z,-1.40
2018-02-21T00:33:25.528Z,-1.60
2018-02-21T00:35:53.324Z,-1.60
2018-02-21T00:38:20.999Z,-1.60
2018-02-21T00:40:48.600Z,-1.70
2018-02-21T00:43:16.228Z,-1.80
2018-02-21T00:45:43.876Z,-1.90
2018-02-21T00:48:12.244Z,-2.00
2018-02-21T00:50:39.984Z,-2.00
2018-02-21T00:53:07.596Z,-2.00
2018-02-21T00:55:35.221Z,-2.00
2018-02-21T00:58:02.816Z,-1.90
2018-02-21T01:00:30.415Z,-1.90
2018-02-21T01:02:58.038Z,-1.90
2018-02-21T01:05:25.674Z,-1.90
2018-02-21T01:07:53.276Z,-1.90
2018-02-21T01:10:20.906Z,-1.80
2018-02-21T01:12:48.541Z,-1.80
2018-02-21T01:15:16.173Z,-1.90
2018-02-21T01:17:44.548Z,-1.90
2018-02-21T01:20:12.222Z,-1.90
2018-02-21T01:22:39.850Z,-1.90
2018-02-21T01:25:07.486Z,-1.80
2018-02-21T01:27:35.918Z,-1.70
2018-02-21T01:30:03.537Z,-1.70
2018-02-21T01:32:31.207Z,-1.70
2018-02-21T01:34:58.783Z,-1.60
2018-02-21T01:37:26.399Z,-1.60
2018-02-21T01:39:54.004Z,-1.60
2018-02-21T01:42:21.646Z,-1.60
2018-02-21T01:44:49.253Z,-1.70
2018-02-21T01:47:16.879Z,-1.70
2018-02-21T01:49:44.476Z,-1.70
2018-02-21T01:52:12.116Z,-1.70
2018-02-21T01:54:39.718Z,-1.80
2018-02-21T01:57:07.373Z,-1.80
2018-02-21T01:59:34.976Z,-1.80
2018-02-21T02:02:02.599Z,-1.70
2018-02-21T02:04:31.014Z,-1.70
2018-02-21T02:06:58.676Z,-1.80
2018-02-21T02:09:27.064Z,-1.70
2018-02-21T02:11:55.584Z,-1.70
2018-02-21T02:14:23.232Z,-1.60
2018-02-21T02:16:51.626Z,-1.60
2018-02-21T02:19:20.029Z,-1.60
2018-02-21T02:21:47.657Z,-1.60
2018-02-21T02:24:15.293Z,-1.60
2018-02-21T02:26:42.883Z,-1.60
2018-02-21T02:29:10.537Z,-1.60
2018-02-21T02:31:38.129Z,-1.60
2018-02-21T02:34:05.752Z,-1.60
2018-02-21T02:36:34.116Z,-1.70
2018-02-21T02:39:13.760Z,-1.70
2018-02-21T02:41:41.380Z,-1.70
2018-02-21T02:44:09.784Z,-1.70
2018-02-21T02:46:37.364Z,-1.70
2018-02-21T02:49:04.989Z,-1.80
2018-02-21T02:51:32.577Z,-1.90
2018-02-21T02:54:00.980Z,-2.00
2018-02-21T02:56:28.602Z,-2.00
2018-02-21T02:58:56.218Z,-2.10
2018-02-21T03:01:24.602Z,-2.30
2018-02-21T03:03:52.973Z,-2.40
2018-02-21T03:06:20.592Z,-2.40
2018-02-21T03:08:48.201Z,-2.50
2018-02-21T03:11:15.860Z,-2.60
2018-02-21T03:13:43.466Z,-2.60
2018-02-21T03:16:11.146Z,-2.80
2018-02-21T03:18:38.736Z,-2.90
2018-02-21T03:21:07.129Z,-3.10
2018-02-21T03:23:35.495Z,-3.20
2018-02-21T03:26:15.719Z,-3.30
2018-02-21T03:28:43.399Z,-3.40
2018-02-21T03:31:11.040Z,-3.50
2018-02-21T03:33:39.387Z,-3.60
2018-02-21T03:36:07.055Z,-3.60
2018-02-21T03:38:35.609Z,-3.70
2018-02-21T03:41:03.232Z,-3.80
2018-02-21T03:43:30.816Z,-3.90
2018-02-21T03:45:58.704Z,-3.90
2018-02-21T03:48:26.291Z,-4.00
2018-02-21T03:50:54.719Z,-4.10
2018-02-21T03:53:22.320Z,-4.20
2018-02-21T03:55:49.976Z,-4.20
2018-02-21T03:58:17.592Z,-4.40
2018-02-21T04:00:45.948Z,-4.60
2018-02-21T04:03:13.572Z,-4.60
2018-02-21T04:05:41.956Z,-4.60
2018-02-21T04:08:10.368Z,-4.40
2018-02-21T04:10:38.007Z,-4.50
2018-02-21T04:13:06.411Z,-4.40
2018-02-21T04:15:34.783Z,-4.40
2018-02-21T04:18:02.519Z,-4.40
2018-02-21T04:20:30.114Z,-4.50
2018-02-21T04:22:57.813Z,-4.60
2018-02-21T04:25:25.422Z,-4.60
2018-02-21T04:27:53.054Z,-4.70
2018-02-21T04:30:20.890Z,-4.80
2018-02-21T04:32:48.513Z,-4.90
2018-02-21T04:35:16.103Z,-4.80
2018-02-21T04:37:44.503Z,-4.60
2018-02-21T04:40:12.104Z,-4.60
2018-02-21T04:42:39.754Z,-4.60
2018-02-21T04:45:07.352Z,-4.60
2018-02-21T04:47:35.024Z,-4.60
2018-02-21T04:50:02.679Z,-4.60
2018-02-21T04:52:30.284Z,-4.60
2018-02-21T04:58:24.427Z,-4.70
2018-02-21T05:00:51.966Z,-4.70
2018-02-21T05:03:19.515Z,-4.70
2018-02-21T05:05:47.847Z,-4.90
2018-02-21T05:08:15.397Z,-4.90
2018-02-21T05:10:42.966Z,-5.00
2018-02-21T05:13:10.642Z,-5.10
2018-02-21T05:15:38.211Z,-5.20
2018-02-21T05:18:05.755Z,-5.30
2018-02-21T05:20:34.079Z,-5.20
2018-02-21T05:23:01.620Z,-5.20
2018-02-21T05:25:29.952Z,-5.10
2018-02-21T05:27:57.496Z,-5.10
2018-02-21T05:30:25.052Z,-5.00
2018-02-21T05:32:54.741Z,-4.90
2018-02-21T05:35:22.307Z,-4.90
2018-02-21T05:37:49.852Z,-5.00
2018-02-21T05:40:17.519Z,-5.00
2018-02-21T05:42:45.059Z,-4.90
2018-02-21T05:45:13.481Z,-4.90
2018-02-21T05:47:41.014Z,-4.90
2018-02-21T05:50:09.319Z,-4.90
2018-02-21T05:52:37.648Z,-5.00
2018-02-21T05:55:05.195Z,-5.10
2018-02-21T05:57:32.759Z,-5.00
2018-02-21T06:00:00.311Z,-5.00
2018-02-21T06:02:28.640Z,-4.90
2018-02-21T06:05:00.052Z,-4.90
2018-02-21T06:07:27.620Z,-4.80
2018-02-21T06:09:55.163Z,-4.70
2018-02-21T06:12:22.727Z,-4.70
2018-02-21T06:14:50.270Z,-4.60
2018-02-21T06:17:17.842Z,-4.50
2018-02-21T06:19:45.383Z,-4.70
2018-02-21T06:22:12.960Z,-4.90
2018-02-21T06:24:40.500Z,-4.90
2018-02-21T06:27:08.064Z,-4.70
2018-02-21T06:29:35.615Z,-4.70
2018-02-21T06:32:03.244Z,-4.90
2018-02-21T06:34:30.791Z,-4.90
2018-02-21T06:36:58.339Z,-4.70
2018-02-21T06:39:25.899Z,-4.60
2018-02-21T06:41:53.445Z,-4.60
2018-02-21T06:44:21.032Z,-4.50
2018-02-21T06:46:48.576Z,-4.40
2018-02-21T06:49:16.908Z,-4.30
2018-02-21T06:51:44.456Z,-4.30
2018-02-21T06:54:12.035Z,-4.10
2018-02-21T06:56:39.631Z,-3.90
2018-02-21T06:59:07.196Z,-4.00
2018-02-21T07:01:34.743Z,-3.90
2018-02-21T07:04:03.076Z,-3.70
2018-02-21T07:06:30.626Z,-3.70
2018-02-21T07:08:58.189Z,-3.70
2018-02-21T07:11:25.727Z,-3.60
2018-02-21T07:13:54.067Z,-3.10
2018-02-21T07:16:21.611Z,-3.10
2018-02-21T07:18:49.934Z,-3.00
2018-02-21T07:21:17.470Z,-3.00
2018-02-21T07:23:45.052Z,-2.80
2018-02-21T07:26:12.608Z,-2.50
2018-02-21T07:28:40.911Z,-2.60
2018-02-21T07:31:08.471Z,-2.60
2018-02-21T07:33:36.780Z,-1.80
2018-02-21T07:36:04.343Z,-1.80
2018-02-21T07:38:31.878Z,-1.80
2018-02-21T07:40:59.467Z,-1.40
2018-02-21T07:43:31.424Z,-0.10
2018-02-21T07:45:59.151Z,0.00
2018-02-21T07:48:26.702Z,0.70
2018-02-21T07:50:55.069Z,-0.30
2018-02-21T07:53:22.656Z,-0.40
2018-02-21T07:55:51.052Z,0.20
2018-02-21T07:58:23.665Z,0.30
2018-02-21T08:00:51.317Z,0.30
2018-02-21T08:03:18.908Z,0.50
2018-02-21T08:05:46.564Z,-0.20
2018-02-21T08:08:14.157Z,-0.90
2018-02-21T08:10:41.756Z,-1.10
2018-02-21T08:13:23.423Z,-1.20
2018-02-21T08:15:51.043Z,-1.40
2018-02-21T08:18:18.660Z,-1.80
2018-02-21T08:20:46.305Z,-1.80
2018-02-21T08:23:13.937Z,-1.70
2018-02-21T08:25:41.564Z,-1.40
2018-02-21T08:28:09.971Z,-0.30
2018-02-21T08:30:37.560Z,-0.30
2018-02-21T08:33:05.226Z,0.40
2018-02-21T08:35:52.617Z,4.10
2018-02-21T08:38:20.228Z,4.10
2018-02-21T08:40:47.845Z,4.20
2018-02-21T08:43:15.476Z,3.70
2018-02-21T08:45:43.064Z,5.50
2018-02-21T08:48:10.684Z,7.40
2018-02-21T08:50:38.309Z,8.60
2018-02-21T08:53:05.936Z,7.70
2018-02-21T08:55:33.531Z,9.40
2018-02-21T08:58:01.926Z,7.80
2018-02-21T09:00:29.527Z,7.70
2018-02-21T09:02:57.167Z,8.40
2018-02-21T09:11:19.600Z,8.90
2018-02-21T09:13:47.264Z,8.30
2018-02-21T09:16:14.856Z,8.20
2018-02-21T09:18:42.509Z,8.90
2018-02-21T09:21:10.885Z,9.40
2018-02-21T09:23:39.316Z,11.30
2018-02-21T09:26:06.925Z,11.20
2018-02-21T09:28:34.580Z,10.00
2018-02-21T09:31:02.200Z,12.10
2018-02-21T09:33:30.608Z,10.50
2018-02-21T09:35:58.200Z,10.50
2018-02-21T09:38:25.936Z,11.70
2018-02-21T09:40:53.528Z,10.80
2018-02-21T09:43:21.112Z,8.40
2018-02-21T09:45:48.793Z,10.60
2018-02-21T09:48:16.399Z,11.60
2018-02-21T09:50:44.771Z,11.50
2018-02-21T09:53:12.403Z,12.00
2018-02-21T09:55:40.760Z,10.90
2018-02-21T09:58:08.465Z,10.90
2018-02-21T10:00:36.864Z,12.60
2018-02-21T10:03:05.297Z,12.80
2018-02-21T10:05:33.046Z,12.80
2018-02-21T10:08:00.667Z,10.90
2018-02-21T10:10:28.392Z,11.60
2018-02-21T10:12:55.906Z,12.70
2018-02-21T10:15:23.524Z,12.80
2018-02-21T10:17:51.908Z,11.80
2018-02-21T10:20:21.234Z,11.40
2018-02-21T10:22:48.774Z,11.40
2018-02-21T10:25:16.376Z,12.40
2018-02-21T10:27:43.944Z,11.80
2018-02-21T10:30:11.608Z,9.90
2018-02-21T10:32:40.012Z,12.00
2018-02-21T10:35:07.633Z,12.00
2018-02-21T10:37:35.293Z,11.20
2018-02-21T10:40:02.896Z,10.20
2018-02-21T10:42:42.407Z,11.40
2018-02-21T10:45:10.012Z,12.20
2018-02-21T10:47:37.601Z,10.60
2018-02-21T10:50:05.195Z,10.40
2018-02-21T10:52:33.596Z,10.30
2018-02-21T10:55:01.181Z,10.30
2018-02-21T10:57:28.775Z,11.60
2018-02-21T10:59:56.428Z,13.20
2018-02-21T11:02:24.052Z,13.00
2018-02-21T11:04:51.661Z,11.90
2018-02-21T11:07:19.328Z,10.20
2018-02-21T11:09:47.700Z,10.10
2018-02-21T11:12:15.302Z,10.00
2018-02-21T11:14:42.956Z,8.30
2018-02-21T11:17:11.339Z,9.20
2018-02-21T11:19:39.692Z,8.30
2018-02-21T11:22:07.320Z,8.30
2018-02-21T11:24:34.944Z,9.70
2018-02-21T11:27:02.545Z,9.80
2018-02-21T11:29:31.084Z,12.10
2018-02-21T11:31:58.695Z,12.10
2018-02-21T11:34:26.333Z,13.20
2018-02-21T11:36:53.912Z,15.40
2018-02-21T11:39:21.534Z,12.50
2018-02-21T11:41:49.892Z,13.50
2018-02-21T11:44:17.516Z,13.40
2018-02-21T11:46:45.113Z,13.90
2018-02-21T11:49:12.744Z,13.90
2018-02-21T11:51:40.600Z,14.40
2018-02-21T11:54:08.987Z,16.50
2018-02-21T11:56:36.582Z,16.40
2018-02-21T11:59:05.090Z,14.50
2018-02-21T12:01:33.516Z,12.90
2018-02-21T12:04:01.143Z,12.80
2018-02-21T12:06:29.525Z,13.10
2018-02-21T12:08:57.121Z,13.10
2018-02-21T12:11:25.464Z,12.90
2018-02-21T12:13:53.080Z,12.90
2018-02-21T12:16:21.442Z,13.10
2018-02-21T12:18:49.079Z,13.10
2018-02-21T12:21:16.677Z,14.00
2018-02-21T12:23:44.305Z,12.60
2018-02-21T12:26:11.917Z,14.00
2018-02-21T12:28:39.561Z,15.00
2018-02-21T12:31:08.145Z,14.30
2018-02-21T12:33:35.763Z,13.40
2018-02-21T12:36:03.396Z,12.20
2018-02-21T12:38:31.081Z,13.70
2018-02-21T12:41:04.720Z,14.20
2018-02-21T12:43:32.329Z,12.90
2018-02-21T12:46:00.013Z,12.90
2018-02-21T12:48:28.582Z,12.40
2018-02-21T12:50:56.253Z,12.40
2018-02-21T12:53:23.889Z,12.80
2018-02-21T12:55:51.552Z,15.60
2018-02-21T12:58:19.146Z,15.60
2018-02-21T13:00:46.792Z,13.90
2018-02-21T13:03:14.454Z,15.20
2018-02-21T13:05:42.874Z,14.90
2018-02-21T13:08:10.574Z,14.90
2018-02-21T13:10:38.247Z,13.50
2018-02-21T13:13:06.581Z,14.90
2018-02-21T13:15:36.799Z,14.90
2018-02-21T13:18:04.421Z,14.90
2018-02-21T13:20:32.064Z,15.80
2018-02-21T13:23:00.484Z,17.20
2018-02-21T13:25:28.056Z,17.20
2018-02-21T13:27:55.673Z,17.00
2018-02-21T13:30:23.755Z,16.20
2018-02-21T13:32:51.665Z,16.10
2018-02-21T13:35:20.053Z,13.50
2018-02-21T13:37:48.483Z,13.10
2018-02-21T13:40:16.262Z,13.00
2018-02-21T13:42:43.888Z,13.80
2018-02-21T13:45:11.496Z,15.10
2018-02-21T13:47:39.142Z,14.30
2018-02-21T13:50:07.512Z,15.60
2018-02-21T13:52:43.420Z,15.60
2018-02-21T13:55:11.042Z,16.30
2018-02-21T13:57:38.747Z,15.60
2018-02-21T14:00:06.328Z,14.20
2018-02-21T14:02:34.757Z,13.50
2018-02-21T14:05:02.379Z,13.50
2018-02-21T14:07:30.023Z,12.20
2018-02-21T14:09:57.641Z,11.50
2018-02-21T14:12:26.036Z,11.50
2018-02-21T14:14:54.409Z,11.70
2018-02-21T14:17:22.870Z,12.90
2018-02-21T14:19:50.536Z,12.90
2018-02-21T14:22:18.165Z,14.40
2018-02-21T14:24:46.623Z,13.80
2018-02-21T14:27:14.262Z,13.80
2018-02-21T14:29:42.108Z,13.40
2018-02-21T14:32:10.467Z,10.90
2018-02-21T14:34:38.072Z,10.90
2018-02-21T14:37:06.445Z,11.20
2018-02-21T14:39:34.056Z,11.20
2018-02-21T14:42:01.644Z,11.10
2018-02-21T14:44:34.550Z,11.60
2018-02-21T14:47:03.160Z,10.90
2018-02-21T14:49:30.818Z,11.00
2018-02-21T14:51:58.407Z,10.80
2018-02-21T14:54:26.076Z,10.30
2018-02-21T14:56:53.688Z,10.70
2018-02-21T14:59:22.058Z,11.50
2018-02-21T15:01:49.644Z,11.50
2018-02-21T15:04:28.851Z,9.80
2018-02-21T15:06:56.452Z,9.70
2018-02-21T15:09:24.101Z,8.90
2018-02-21T15:11:51.803Z,8.70
2018-02-21T15:14:19.433Z,8.40
2018-02-21T15:16:47.048Z,8.70
2018-02-21T15:19:15.495Z,9.10
2018-02-21T15:21:43.273Z,9.10
2018-02-21T15:24:10.974Z,8.50
2018-02-21T15:26:38.588Z,8.40
2018-02-21T15:29:07.048Z,8.30
2018-02-21T15:31:34.662Z,8.30
2018-02-21T15:34:02.319Z,8.80
2018-02-21T15:36:30.716Z,8.40
2018-02-21T15:38:59.137Z,8.50
2018-02-21T15:41:26.767Z,8.50
2018-02-21T15:43:54.372Z,7.80
2018-02-21T15:46:21.996Z,6.90
2018-02-21T15:48:49.576Z,6.40
2018-02-21T15:51:17.189Z,5.50
2018-02-21T15:53:44.784Z,5.00
2018-02-21T15:56:12.556Z,4.30
2018-02-21T15:58:40.123Z,3.80
2018-02-21T16:01:07.788Z,3.60
2018-02-21T16:03:35.431Z,3.60
2018-02-21T16:06:03.992Z,3.30
2018-02-21T16:08:31.632Z,3.20
2018-02-21T16:10:59.256Z,2.80
2018-02-21T16:13:26.896Z,2.60
2018-02-21T16:15:54.568Z,2.60
2018-02-21T16:18:22.236Z,2.50
2018-02-21T16:20:50.016Z,2.50
2018-02-21T16:23:17.664Z,2.20
2018-02-21T16:25:45.267Z,1.90
2018-02-21T16:28:12.942Z,1.80
2018-02-21T16:30:40.561Z,1.60
2018-02-21T16:33:08.965Z,1.50
2018-02-21T16:35:36.641Z,1.40
2018-02-21T16:38:05.085Z,1.40
2018-02-21T16:40:32.681Z,1.40
2018-02-21T16:43:00.316Z,1.40
2018-02-21T16:45:27.940Z,1.30
2018-02-21T16:47:56.331Z,1.30
2018-02-21T16:50:24.744Z,1.20
2018-02-21T16:52:52.344Z,1.20
2018-02-21T16:55:19.997Z,1.20
2018-02-21T16:57:47.594Z,1.20
2018-02-21T17:00:15.252Z,1.10
2018-02-21T17:02:42.864Z,1.10
2018-02-21T17:05:10.506Z,1.00
2018-02-21T17:07:38.109Z,1.00
2018-02-21T17:10:05.766Z,0.80
2018-02-21T17:12:33.459Z,0.60
2018-02-21T17:15:01.154Z,0.60
2018-02-21T17:17:29.496Z,0.50
2018-02-21T17:19:57.157Z,0.50
2018-02-21T17:22:24.804Z,0.50
2018-02-21T17:24:53.187Z,0.50
2018-02-21T17:27:20.832Z,0.50
2018-02-21T17:29:54.284Z,0.40
2018-02-21T17:32:22.645Z,0.40
2018-02-21T17:34:50.251Z,0.40
2018-02-21T17:37:18.603Z,0.40
2018-02-21T17:39:46.237Z,0.30
2018-02-21T17:42:13.850Z,0.30
2018-02-21T17:44:52.854Z,0.20
2018-02-21T17:47:20.502Z,0.20
2018-02-21T17:49:48.097Z,0.10
2018-02-21T17:52:15.777Z,0.10
2018-02-21T17:54:43.404Z,0.10
2018-02-21T17:57:11.848Z,-0.10
2018-02-21T17:59:39.428Z,-0.10
2018-02-21T18:02:07.065Z,-0.10
2018-02-21T18:04:34.705Z,0.00
2018-02-21T18:07:02.320Z,-0.10
2018-02-21T18:09:29.921Z,-0.10
2018-02-21T18:11:57.635Z,-0.20
2018-02-21T18:14:26.026Z,-0.30
2018-02-21T18:16:54.456Z,-0.40
2018-02-21T18:19:22.120Z,-0.40
2018-02-21T18:21:49.824Z,-0.40
2018-02-21T18:24:17.512Z,-0.40
2018-02-21T18:26:45.266Z,-0.50
2018-02-21T18:29:13.644Z,-0.50
2018-02-21T18:31:41.276Z,-0.50
2018-02-21T18:34:12.940Z,-0.60
2018-02-21T18:36:40.539Z,-0.60
2018-02-21T18:39:08.152Z,-0.60
2018-02-21T18:41:35.755Z,-0.60
2018-02-21T18:44:03.372Z,-0.70
2018-02-21T18:46:36.898Z,-0.70
2018-02-21T18:49:04.528Z,-0.70
2018-02-21T18:51:32.934Z,-0.70
2018-02-21T18:54:01.401Z,-0.70
2018-02-21T18:56:29.061Z,-0.70
2018-02-21T18:58:56.700Z,-0.70
2018-02-21T19:01:24.305Z,-0.70
2018-02-21T19:03:51.961Z,-0.80
2018-02-21T19:06:19.581Z,-0.80
2018-02-21T19:08:47.993Z,-0.90
2018-02-21T19:11:15.600Z,-0.90
2018-02-21T19:13:43.232Z,-0.90
2018-02-21T19:16:11.614Z,-0.80
2018-02-21T19:18:40.081Z,-0.80
2018-02-21T19:21:07.686Z,-0.90
2018-02-21T19:23:36.108Z,-0.70
2018-02-21T19:26:03.719Z,-0.80
2018-02-21T19:28:31.377Z,-0.80
2018-02-21T19:30:59.239Z,-0.80
2018-02-21T19:33:26.901Z,-0.80
2018-02-21T19:35:54.501Z,-0.80
2018-02-21T19:38:22.165Z,-0.80
2018-02-21T19:40:49.824Z,-0.80
2018-02-21T19:43:17.488Z,-0.70
2018-02-21T19:45:45.179Z,-0.80
2018-02-21T19:48:12.846Z,-0.70
2018-02-21T19:50:40.532Z,-0.60
2018-02-21T19:53:08.189Z,-0.60
2018-02-21T19:55:35.852Z,-0.60
2018-02-21T19:58:03.485Z,-0.50
2018-02-21T20:00:31.080Z,-0.60
2018-02-21T20:02:59.500Z,-0.60
2018-02-21T20:05:27.198Z,-0.60
2018-02-21T20:07:54.902Z,-0.50
2018-02-21T20:10:22.495Z,-0.60
2018-02-21T20:12:50.897Z,-0.60
2018-02-21T20:15:19.319Z,-0.70
2018-02-21T20:17:46.947Z,-0.70
2018-02-21T20:20:15.325Z,-0.70
2018-02-21T20:22:43.066Z,-0.70
2018-02-21T20:25:10.783Z,-0.70
2018-02-21T20:27:38.370Z,-0.70
2018-02-21T20:30:06.789Z,-0.70
2018-02-21T20:32:35.595Z,-0.70
2018-02-21T20:35:03.260Z,-0.70
2018-02-21T20:37:31.727Z,-0.70
2018-02-21T20:40:00.164Z,-0.80
2018-02-21T20:42:27.815Z,-0.80
2018-02-21T20:44:55.452Z,-0.80
2018-02-21T20:47:23.148Z,-0.80
2018-02-21T20:49:51.687Z,-0.90
2018-02-21T20:52:20.243Z,-0.90
2018-02-21T20:57:42.217Z,-1.00
2018-02-21T21:00:11.508Z,-1.00
2018-02-21T21:02:39.322Z,-1.10
2018-02-21T21:05:07.680Z,-1.10
2018-02-21T21:07:36.061Z,-1.20
2018-02-21T21:10:03.716Z,-1.20
2018-02-21T21:12:31.315Z,-1.10
2018-02-21T21:14:59.058Z,-1.10
2018-02-21T21:17:26.727Z,-1.10
2018-02-21T21:19:54.416Z,-1.20
2018-02-21T21:22:22.040Z,-1.20
2018-02-21T21:24:49.740Z,-1.30
2018-02-21T21:27:17.420Z,-1.30
2018-02-21T21:29:45.037Z,-1.20
2018-02-21T21:32:12.654Z,-1.10
2018-02-21T21:34:40.276Z,-1.00
2018-02-21T21:37:07.880Z,-0.90
2018-02-21T21:39:36.316Z,-0.90
2018-02-21T21:42:03.969Z,-0.90
2018-02-21T21:44:31.597Z,-0.90
2018-02-21T21:46:59.179Z,-1.00
2018-02-21T21:49:32.867Z,-1.00
2018-02-21T21:51:55.322Z,-1.00
2018-02-21T21:54:22.973Z,-1.00
2018-02-21T21:56:50.571Z,-1.00
2018-02-21T21:59:18.194Z,-1.10
2018-02-21T22:01:45.783Z,-1.10
2018-02-21T22:04:13.400Z,-1.20
2018-02-21T22:06:41.767Z,-1.20
2018-02-21T22:09:09.413Z,-1.20
2018-02-21T22:11:37.036Z,-1.30
2018-02-21T22:14:05.447Z,-1.40
2018-02-21T22:16:33.152Z,-1.40
2018-02-21T22:19:00.881Z,-1.40
2018-02-21T22:21:28.529Z,-1.40
2018-02-21T22:23:56.143Z,-1.50
2018-02-21T22:26:24.532Z,-1.70
2018-02-21T22:28:52.968Z,-1.70
2018-02-21T22:31:20.636Z,-1.70
2018-02-21T22:33:48.248Z,-1.80
2018-02-21T22:36:15.865Z,-1.80
2018-02-21T22:38:43.512Z,-1.80
2018-02-21T22:41:11.908Z,-1.90
2018-02-21T22:43:40.340Z,-1.90
2018-02-21T22:46:08.116Z,-1.90
2018-02-21T22:48:35.781Z,-1.90
2018-02-21T22:51:03.436Z,-2.00
2018-02-21T22:53:31.111Z,-2.20
2018-02-21T22:55:58.735Z,-2.20
2018-02-21T22:58:26.336Z,-2.20
2018-02-21T23:00:54.733Z,-2.30
2018-02-21T23:03:23.088Z,-2.40
2018-02-21T23:05:50.748Z,-2.50
2018-02-21T23:08:18.344Z,-2.50
2018-02-21T23:10:45.983Z,-2.50
2018-02-21T23:13:13.669Z,-2.50
2018-02-21T23:15:41.331Z,-2.50
2018-02-21T23:18:08.941Z,-2.50
2018-02-21T23:20:36.594Z,-2.40
2018-02-21T23:23:04.188Z,-2.50
2018-02-21T23:25:31.928Z,-2.50
2018-02-21T23:27:59.528Z,-2.60
2018-02-21T23:30:27.152Z,-2.60
2018-02-21T23:32:54.751Z,-2.60
2018-02-21T23:35:22.444Z,-2.70
2018-02-21T23:37:50.032Z,-2.80
2018-02-21T23:40:18.432Z,-3.00
2018-02-21T23:42:46.022Z,-3.00
2018-02-21T23:45:14.437Z,-3.10
2018-02-21T23:47:42.064Z,-3.20
2018-02-21T23:50:09.693Z,-3.10
2018-02-21T23:52:37.288Z,-3.10
2018-02-21T23:55:04.903Z,-3.10
2018-02-21T23:57:33.304Z,-3.20
